Time;durP1;ratioP1;P1;durP2;ratioP2;P2;SDS_P1;SDS_P2;PMS_P1;PMS_P2;Temp;Humidity;BMP_temperature;BMP_pressure;BME280_temperature;BME280_humidity;BME280_pressure;Samples;Min_cycle;Max_cycle;Signal;HPM_P1;HPM_P2
2023/04/09 00:01:57;;;;;;;20.92;14.13;;;;;;;8.10;76.79;95449.03;5070472;28;20035;-74
2023/04/09 00:04:22;;;;;;;24.27;14.75;;;;;;;7.71;77.64;95414.88;5072606;28;20028;-74
2023/04/09 00:06:48;;;;;;;20.80;15.10;;;;;;;7.27;77.35;95369.28;5072315;28;20040;-74
2023/04/09 00:09:13;;;;;;;37.03;14.68;;;;;;;7.87;78.04;95451.97;5070180;28;20502;-74
2023/04/09 00:11:39;;;;;;;23.60;14.63;;;;;;;7.98;77.77;95451.03;5072746;28;20036;-73
2023/04/09 00:14:04;;;;;;;22.02;14.90;;;;;;;7.90;77.73;95433.00;5070970;28;20122;-74
2023/04/09 00:16:30;;;;;;;22.75;14.40;;;;;;;7.78;77.06;95409.41;5071979;28;20041;-74
2023/04/09 00:18:55;;;;;;;22.63;14.80;;;;;;;7.72;76.55;95416.47;5057347;28;20518;-73
2023/04/09 00:21:21;;;;;;;21.30;13.73;;;;;;;8.05;77.70;95454.28;5067795;28;20027;-74
2023/04/09 00:23:47;;;;;;;22.92;15.10;;;;;;;8.16;76.62;95463.91;5072466;28;20056;-74
2023/04/09 00:26:12;;;;;;;23.63;15.25;;;;;;;7.82;77.56;95412.34;5072029;28;20068;-74
2023/04/09 00:28:37;;;;;;;22.02;15.13;;;;;;;7.75;77.05;95401.97;5070355;28;20465;-74
2023/04/09 00:31:03;;;;;;;24.05;14.75;;;;;;;7.98;77.19;95432.56;5071163;28;20039;-73
2023/04/09 00:33:28;;;;;;;21.92;14.13;;;;;;;7.84;76.38;95434.00;5070681;28;20024;-74
2023/04/09 00:35:54;;;;;;;24.95;13.50;;;;;;;7.91;76.62;95424.84;5066280;28;20491;-74
2023/04/09 00:38:19;;;;;;;30.55;15.85;;;;;;;8.08;76.63;95443.22;5057074;28;20029;-73
2023/04/09 00:40:50;;;;;;;21.63;14.32;;;;;;;8.22;76.90;95462.91;5071227;28;20056;-73
2023/04/09 00:43:16;;;;;;;23.92;14.88;;;;;;;7.91;77.11;95429.31;5071485;28;20025;-73
2023/04/09 00:45:42;;;;;;;21.67;14.00;;;;;;;7.91;76.87;95439.88;5061327;28;20037;-73
2023/04/09 00:48:08;;;;;;;20.83;14.48;;;;;;;8.08;76.63;95459.88;5066471;28;20509;-73
2023/04/09 00:50:33;;;;;;;17.38;12.20;;;;;;;7.21;76.36;95324.66;5070706;28;20041;-74
2023/04/09 00:52:59;;;;;;;19.10;13.02;;;;;;;7.97;77.58;95444.16;5056858;28;20136;-74
2023/04/09 00:55:25;;;;;;;20.55;13.05;;;;;;;8.03;76.64;95432.59;5069394;28;20580;-74
2023/04/09 00:57:51;;;;;;;18.08;13.13;;;;;;;7.71;76.76;95372.63;5071591;28;20028;-74
2023/04/09 01:00:16;;;;;;;17.98;12.85;;;;;;;8.04;75.95;95437.63;5071179;28;20100;-74
2023/04/09 01:02:42;;;;;;;20.23;12.43;;;;;;;7.71;75.64;95383.19;5069431;28;20025;-74
2023/04/09 01:05:09;;;;;;;17.60;12.95;;;;;;;8.03;76.58;95432.59;5071114;28;20029;-74
2023/04/09 01:07:53;;;;;;;16.95;12.02;;;;;;;8.01;76.66;95455.84;5069968;28;20028;-74
2023/04/09 01:10:52;;;;;;;17.85;11.00;;;;;;;8.01;76.74;95461.13;5069702;28;20078;-74
2023/04/09 01:13:34;;;;;;;16.40;11.57;;;;;;;7.75;76.63;95401.97;5070942;28;20065;-74
2023/04/09 01:16:02;;;;;;;15.77;11.45;;;;;;;7.62;76.22;95387.34;5070855;28;20036;-75
2023/04/09 01:18:29;;;;;;;17.23;12.23;;;;;;;8.19;75.80;95471.31;5071015;28;20039;-74
2023/04/09 01:21:07;;;;;;;18.70;12.02;;;;;;;8.04;76.11;95436.84;5069343;28;20035;-74
2023/04/09 01:23:41;;;;;;;17.25;12.10;;;;;;;8.21;76.25;95465.78;5069203;28;20063;-74
2023/04/09 01:26:28;;;;;;;15.90;12.00;;;;;;;8.17;75.62;95465.47;5065363;28;20492;-74
2023/04/09 01:28:55;;;;;;;16.48;10.98;;;;;;;8.05;76.41;95467.47;5063234;28;20044;-74
2023/04/09 01:31:27;;;;;;;12.90;10.20;;;;;;;8.03;76.23;95459.00;5069673;28;20032;-76
2023/04/09 01:33:53;;;;;;;17.48;10.80;;;;;;;7.90;75.80;95427.72;5069022;28;20498;-74
2023/04/09 01:36:20;;;;;;;20.25;12.60;;;;;;;8.13;75.70;95467.84;5065997;28;20046;-74
2023/04/09 01:38:47;;;;;;;17.02;11.98;;;;;;;8.20;75.48;95467.63;5070453;28;20035;-74
2023/04/09 01:41:16;;;;;;;14.95;11.45;;;;;;;8.00;74.87;95459.53;5069103;28;20021;-74
2023/04/09 01:43:43;;;;;;;18.70;12.48;;;;;;;8.03;75.55;95469.56;5069623;28;20575;-74
2023/04/09 01:46:10;;;;;;;18.38;12.00;;;;;;;7.90;75.33;95433.81;5068986;28;20414;-74
2023/04/09 01:48:36;;;;;;;18.88;12.07;;;;;;;8.07;75.72;95460.13;5068937;28;20055;-74
2023/04/09 01:51:03;;;;;;;17.83;12.05;;;;;;;7.98;75.29;95449.22;5070669;28;20021;-74
2023/04/09 01:53:29;;;;;;;17.98;12.50;;;;;;;7.90;75.75;95431.16;5070067;28;20052;-74
2023/04/09 01:55:55;;;;;;;19.63;11.88;;;;;;;8.00;75.48;95465.59;5070795;28;20607;-74
2023/04/09 01:58:21;;;;;;;17.83;11.75;;;;;;;7.67;75.48;95413.78;5069879;28;20127;-74
2023/04/09 02:00:48;;;;;;;16.08;11.52;;;;;;;7.76;75.68;95416.78;5070960;28;20021;-74
2023/04/09 02:03:13;;;;;;;18.75;12.50;;;;;;;8.12;75.69;95468.88;5069143;28;20567;-74
2023/04/09 02:06:00;;;;;;;20.77;13.30;;;;;;;7.71;75.49;95404.31;5070241;28;20108;-74
2023/04/09 02:08:27;;;;;;;17.15;12.55;;;;;;;8.01;75.26;95456.59;5071130;28;20047;-74
2023/04/09 02:10:56;;;;;;;17.52;12.50;;;;;;;7.95;75.21;95436.47;5071006;28;20036;-75
2023/04/09 02:13:23;;;;;;;17.45;12.85;;;;;;;7.86;75.37;95440.63;5070971;28;20044;-74
2023/04/09 02:15:50;;;;;;;19.67;13.05;;;;;;;7.90;76.24;95468.13;5069310;28;20043;-73
2023/04/09 02:18:28;;;;;;;20.63;12.40;;;;;;;7.65;75.80;95410.59;5070400;28;20025;-74
2023/04/09 02:20:57;;;;;;;18.45;13.05;;;;;;;7.87;75.57;95436.94;5070316;28;20040;-74
2023/04/09 02:23:23;;;;;;;19.23;12.95;;;;;;;7.88;75.17;95450.94;5068687;28;20036;-74
2023/04/09 02:25:50;;;;;;;22.30;13.07;;;;;;;7.79;75.41;95449.78;5069604;28;20495;-74
2023/04/09 02:28:15;;;;;;;17.60;12.68;;;;;;;7.63;74.81;95410.03;5068421;28;20036;-74
2023/04/09 02:30:41;;;;;;;19.88;12.77;;;;;;;7.94;74.85;95463.94;5068571;28;20036;-74
2023/04/09 02:33:06;;;;;;;16.98;12.05;;;;;;;7.93;74.66;95464.22;5069974;28;20029;-74
2023/04/09 02:35:32;;;;;;;18.13;12.80;;;;;;;7.91;74.76;95472.38;5067889;28;20114;-74
2023/04/09 02:37:58;;;;;;;20.63;13.55;;;;;;;7.84;74.58;95463.06;5068600;28;20024;-74
2023/04/09 02:40:24;;;;;;;16.75;12.13;;;;;;;7.83;74.57;95466.75;5069946;28;20431;-74
2023/04/09 02:42:51;;;;;;;19.02;12.32;;;;;;;7.78;74.83;95464.84;5069895;28;20033;-74
2023/04/09 02:45:17;;;;;;;18.23;12.57;;;;;;;7.69;75.34;95448.66;5069042;28;20465;-74
2023/04/09 02:47:42;;;;;;;20.23;12.38;;;;;;;7.81;75.23;95461.69;5068178;28;20036;-74
2023/04/09 02:50:08;;;;;;;17.70;12.85;;;;;;;7.81;75.66;95466.97;5068269;28;20085;-74
2023/04/09 02:52:33;;;;;;;27.05;14.25;;;;;;;7.81;75.87;95464.34;5070024;28;20034;-74
2023/04/09 02:54:59;;;;;;;19.33;13.30;;;;;;;7.78;75.85;95454.28;5069328;28;20035;-74
2023/04/09 02:57:24;;;;;;;18.70;12.80;;;;;;;7.63;75.90;95441.72;5067567;28;20036;-74
2023/04/09 02:59:49;;;;;;;20.38;13.00;;;;;;;7.78;75.64;95453.50;5069768;28;20067;-74
2023/04/09 03:02:15;;;;;;;21.80;13.32;;;;;;;7.68;76.01;95441.78;5069169;28;20115;-73
2023/04/09 03:04:40;;;;;;;19.55;13.70;;;;;;;7.47;75.47;95410.16;5067914;28;20032;-74
2023/04/09 03:07:06;;;;;;;19.13;12.88;;;;;;;7.69;75.98;95461.06;5068352;28;20033;-74
2023/04/09 03:09:31;;;;;;;22.55;13.55;;;;;;;7.47;75.33;95416.22;5069627;28;20506;-74
2023/04/09 03:11:57;;;;;;;18.30;12.23;;;;;;;6.95;75.94;95331.47;5067834;28;20418;-74
2023/04/09 03:14:23;;;;;;;19.92;12.38;;;;;;;7.71;75.72;95454.47;5069220;28;20139;-74
2023/04/09 03:16:48;;;;;;;20.17;14.43;;;;;;;7.70;75.22;95454.75;5071669;28;20053;-74
2023/04/09 03:19:14;;;;;;;18.58;13.30;;;;;;;7.55;75.11;95436.88;5072116;28;20077;-74
2023/04/09 03:21:39;;;;;;;21.63;13.80;;;;;;;7.28;75.10;95401.75;5072269;28;20032;-74
2023/04/09 03:24:05;;;;;;;19.58;13.80;;;;;;;7.62;75.77;95455.97;5055146;28;20033;-74
2023/04/09 03:26:35;;;;;;;21.15;14.25;;;;;;;7.28;75.73;95401.75;5070558;28;20020;-74
2023/04/09 03:29:01;;;;;;;23.77;13.13;;;;;;;7.59;75.35;95463.59;5072324;28;20505;-74
2023/04/09 03:31:26;;;;;;;23.42;14.40;;;;;;;7.56;75.70;95451.66;5071642;28;20113;-74
2023/04/09 03:33:52;;;;;;;23.83;14.50;;;;;;;7.35;75.28;95419.00;5071789;28;20155;-74
2023/04/09 03:36:17;;;;;;;21.00;14.38;;;;;;;7.49;76.05;95451.06;5071307;28;20021;-74
2023/04/09 03:38:42;;;;;;;22.23;14.40;;;;;;;7.37;76.21;95445.13;5070871;28;20529;-74
2023/04/09 03:41:08;;;;;;;23.02;15.00;;;;;;;7.48;76.33;95465.28;5071477;28;20043;-74
2023/04/09 03:43:33;;;;;;;21.10;14.70;;;;;;;7.38;76.41;95445.94;5072820;28;20492;-74
2023/04/09 03:45:59;;;;;;;22.75;14.55;;;;;;;7.18;76.29;95414.81;5071405;28;20029;-74
2023/04/09 03:48:24;;;;;;;23.10;15.18;;;;;;;7.44;76.43;95458.94;5072399;28;20029;-74
2023/04/09 03:50:49;;;;;;;20.90;14.77;;;;;;;7.30;75.93;95442.69;5071357;28;20391;-74
2023/04/09 03:53:15;;;;;;;25.67;15.65;;;;;;;7.37;76.41;95458.31;5072928;28;20028;-74
2023/04/09 03:55:40;;;;;;;23.50;14.65;;;;;;;7.19;76.38;95434.88;5071531;28;20040;-74
2023/04/09 03:58:06;;;;;;;24.02;15.20;;;;;;;7.37;76.25;95471.50;5071289;28;20071;-74
2023/04/09 04:00:31;;;;;;;28.00;17.38;;;;;;;7.17;75.99;95455.44;5071941;28;20025;-74
2023/04/09 04:02:56;;;;;;;24.55;15.35;;;;;;;7.22;75.94;95460.78;5063902;28;20450;-74
2023/04/09 04:05:24;;;;;;;29.10;17.95;;;;;;;7.17;76.96;95448.31;5071261;28;20116;-74
2023/04/09 04:07:49;;;;;;;27.10;16.52;;;;;;;7.11;76.78;95440.59;5072641;28;20107;-74
2023/04/09 04:10:15;;;;;;;25.55;15.75;;;;;;;7.19;76.67;95456.78;5071963;28;20108;-75
2023/04/09 04:12:40;;;;;;;29.40;17.02;;;;;;;7.32;76.81;95476.75;5072399;28;21258;-74
2023/04/09 04:15:06;;;;;;;29.00;17.30;;;;;;;7.18;76.90;95457.81;5070948;28;20033;-74
2023/04/09 04:17:32;;;;;;;28.00;17.92;;;;;;;7.22;77.17;95461.56;5070747;28;20051;-74
2023/04/09 04:19:57;;;;;;;28.25;18.30;;;;;;;7.29;77.68;95480.66;5062700;28;20029;-74
2023/04/09 04:22:22;;;;;;;27.90;17.90;;;;;;;7.09;77.10;95429.50;5067783;28;20380;-74
2023/04/09 04:24:48;;;;;;;30.70;18.23;;;;;;;7.15;77.03;95439.88;5072229;28;20372;-74
2023/04/09 04:27:13;;;;;;;29.50;17.63;;;;;;;6.97;77.31;95414.59;5071925;28;20032;-74
2023/04/09 04:29:39;;;;;;;29.25;18.70;;;;;;;7.24;77.56;95463.97;5072386;28;20028;-74
2023/04/09 04:32:04;;;;;;;29.15;18.98;;;;;;;7.30;77.38;95470.91;5069934;28;20487;-74
2023/04/09 04:34:30;;;;;;;27.83;17.80;;;;;;;7.24;77.08;95461.34;5070733;28;20119;-74
2023/04/09 04:36:55;;;;;;;37.65;20.27;;;;;;;7.39;77.28;95484.47;5071859;28;20150;-74
2023/04/09 04:39:20;;;;;;;32.85;20.80;;;;;;;7.20;77.21;95454.94;5070193;28;20533;-74
2023/04/09 04:41:46;;;;;;;33.67;20.02;;;;;;;7.24;77.33;95463.97;5068927;28;20073;-74
2023/04/09 04:44:11;;;;;;;42.08;21.00;;;;;;;6.99;77.27;95430.16;5052915;28;20103;-74
2023/04/09 04:46:37;;;;;;;34.97;21.08;;;;;;;7.21;77.65;95462.63;5070516;28;20037;-74
2023/04/09 04:49:02;;;;;;;32.92;20.42;;;;;;;7.36;77.83;95477.84;5071616;28;20032;-74
2023/04/09 04:51:30;;;;;;;33.83;20.13;;;;;;;7.27;78.35;95450.28;5071142;28;20490;-74
2023/04/09 04:53:55;;;;;;;35.95;21.83;;;;;;;7.26;77.99;95457.41;5071689;28;20028;-74
2023/04/09 04:56:21;;;;;;;42.25;23.52;;;;;;;7.56;77.28;95493.91;5071833;28;20031;-74
2023/04/09 04:58:46;;;;;;;45.47;23.45;;;;;;;7.54;77.77;95477.53;5071433;28;20036;-74
2023/04/09 05:01:11;;;;;;;38.13;22.15;;;;;;;7.63;77.84;95485.78;5071470;28;20029;-73
2023/04/09 05:03:37;;;;;;;38.10;23.08;;;;;;;7.74;77.45;95492.78;5071291;28;20040;-74
2023/04/09 05:06:02;;;;;;;37.38;24.20;;;;;;;7.51;78.03;95448.97;5070630;28;20028;-74
2023/04/09 05:08:28;;;;;;;38.45;23.67;;;;;;;7.88;77.77;95490.56;5071527;28;20020;-74
2023/04/09 05:10:55;;;;;;;39.75;23.30;;;;;;;7.84;77.86;95489.47;5069886;28;20043;-74
2023/04/09 05:13:20;;;;;;;40.10;23.80;;;;;;;7.65;77.82;95452.03;5072314;28;20028;-74
2023/04/09 05:15:46;;;;;;;39.25;24.10;;;;;;;7.38;77.52;95391.31;5071981;28;20029;-74
2023/04/09 05:18:11;;;;;;;36.58;23.50;;;;;;;7.73;77.69;95447.09;5070302;28;20032;-74
2023/04/09 05:20:37;;;;;;;36.92;23.13;;;;;;;7.98;77.08;95462.41;5070308;28;20406;-75
2023/04/09 05:23:02;;;;;;;40.28;22.92;;;;;;;7.97;76.66;95458.16;5063120;28;20032;-74
2023/04/09 05:25:27;;;;;;;41.08;23.92;;;;;;;8.23;76.96;95493.56;5069931;28;20029;-74
2023/04/09 05:27:53;;;;;;;38.92;20.85;;;;;;;8.21;76.54;95477.16;5070800;28;20027;-74
2023/04/09 05:30:18;;;;;;;35.85;20.83;;;;;;;7.75;76.95;95442.38;5063597;28;20641;-74
2023/04/09 05:32:44;;;;;;;34.80;22.00;;;;;;;8.07;76.38;95492.63;5056058;28;20124;-75
2023/04/09 05:35:09;;;;;;;34.20;21.05;;;;;;;7.94;76.54;95463.94;5070247;28;20113;-75
2023/04/09 05:37:35;;;;;;;32.95;19.58;;;;;;;8.07;75.63;95471.47;5070736;28;20039;-75
2023/04/09 05:40:00;;;;;;;39.45;21.40;;;;;;;8.00;76.06;95470.88;5069480;28;20016;-75
2023/04/09 05:42:26;;;;;;;37.03;20.85;;;;;;;7.73;75.58;95449.75;5070955;28;20056;-75
2023/04/09 05:44:51;;;;;;;35.45;19.15;;;;;;;7.61;76.22;95458.84;5069536;28;20044;-75
2023/04/09 05:47:16;;;;;;;35.15;20.13;;;;;;;7.87;75.96;95471.25;5069087;28;20100;-75
2023/04/09 05:49:42;;;;;;;34.47;20.52;;;;;;;7.87;76.01;95459.91;5069061;28;20040;-75
2023/04/09 05:52:07;;;;;;;37.67;21.05;;;;;;;8.10;76.05;95478.09;5070464;28;20515;-75
2023/04/09 05:54:33;;;;;;;33.05;18.98;;;;;;;8.17;75.94;95480.53;5069854;28;20028;-75
2023/04/09 05:56:59;;;;;;;37.92;21.15;;;;;;;8.31;76.95;95494.97;5057725;28;20029;-75
2023/04/09 05:59:24;;;;;;;32.42;21.17;;;;;;;8.44;75.79;95494.56;5069006;28;20112;-75
2023/04/09 06:01:50;;;;;;;35.17;20.15;;;;;;;8.23;75.63;95439.91;5070446;28;20486;-75
2023/04/09 06:04:15;;;;;;;32.65;20.13;;;;;;;8.48;75.75;95467.34;5070414;28;20032;-74
2023/04/09 06:06:41;;;;;;;34.20;20.17;;;;;;;8.57;74.57;95456.31;5068036;28;20032;-73
2023/04/09 06:09:06;;;;;;;36.47;21.13;;;;;;;8.47;74.81;95441.16;5063526;28;20029;-76
2023/04/09 06:11:33;;;;;;;34.88;20.05;;;;;;;8.65;75.64;95458.47;5054885;28;20037;-74
2023/04/09 06:13:58;;;;;;;37.28;20.20;;;;;;;8.59;73.70;95439.16;5061003;28;20041;-74
2023/04/09 06:16:23;;;;;;;35.92;20.05;;;;;;;9.00;73.70;95497.59;5057726;28;20415;-74
2023/04/09 06:18:52;;;;;;;32.72;19.92;;;;;;;8.87;73.27;95475.03;5059109;28;20064;-74
2023/04/09 06:21:18;;;;;;;30.17;18.15;;;;;;;8.69;72.40;95470.97;5059899;28;20128;-73
2023/04/09 06:23:43;;;;;;;44.33;18.70;;;;;;;8.72;73.47;95459.06;5068339;28;20086;-74
2023/04/09 06:26:09;;;;;;;29.80;18.63;;;;;;;8.77;73.12;95467.03;5054486;28;20044;-74
2023/04/09 06:28:35;;;;;;;30.73;18.50;;;;;;;8.83;72.15;95471.31;5063587;28;20036;-74
2023/04/09 06:31:00;;;;;;;29.63;18.55;;;;;;;8.68;72.26;95460.63;5069566;28;20035;-74
2023/04/09 06:33:26;;;;;;;31.17;19.55;;;;;;;8.63;72.02;95464.03;5068273;28;20024;-74
2023/04/09 06:35:51;;;;;;;27.52;17.98;;;;;;;8.51;72.63;95432.50;5068405;28;20063;-74
2023/04/09 06:38:17;;;;;;;28.95;17.95;;;;;;;9.10;72.39;95495.81;5068702;28;20351;-74
2023/04/09 06:40:43;;;;;;;28.23;18.10;;;;;;;9.11;72.02;95504.53;5069396;28;20562;-74
2023/04/09 06:43:09;;;;;;;31.25;17.80;;;;;;;9.16;70.98;95515.13;5067254;28;20483;-74
2023/04/09 06:45:36;;;;;;;32.58;18.92;;;;;;;9.18;71.56;95505.09;5049591;28;20029;-75
2023/04/09 06:48:02;;;;;;;30.98;19.33;;;;;;;9.19;71.48;95509.34;5048740;28;20082;-74
2023/04/09 06:50:27;;;;;;;29.67;17.13;;;;;;;9.04;71.01;95480.94;5046805;28;20032;-74
2023/04/09 06:52:53;;;;;;;44.45;20.55;;;;;;;8.83;71.38;95468.66;5049491;28;20064;-74
2023/04/09 06:55:18;;;;;;;32.58;20.02;;;;;;;9.27;70.11;95508.88;5048382;28;20039;-74
2023/04/09 06:57:44;;;;;;;28.30;18.77;;;;;;;9.00;69.88;95471.91;5048890;28;20049;-74
2023/04/09 07:00:10;;;;;;;29.10;19.33;;;;;;;9.20;71.29;95514.38;5049405;28;20033;-74
2023/04/09 07:02:36;;;;;;;29.15;18.00;;;;;;;9.11;71.07;95502.69;5049545;28;20561;-74
2023/04/09 07:05:02;;;;;;;30.60;20.05;;;;;;;9.11;71.42;95476.22;5048015;28;20033;-74
2023/04/09 07:07:28;;;;;;;25.77;17.48;;;;;;;9.32;71.28;95471.81;5048895;28;20029;-74
2023/04/09 07:09:53;;;;;;;27.40;15.70;;;;;;;9.36;70.69;95490.66;5046947;28;20036;-74
2023/04/09 07:12:30;;;;;;;26.45;16.10;;;;;;;9.63;67.74;95510.63;5049289;28;20537;-74
2023/04/09 07:15:00;;;;;;;24.40;15.68;;;;;;;9.53;68.20;95510.59;5049221;28;20029;-74
2023/04/09 07:17:25;;;;;;;27.52;16.45;;;;;;;9.40;68.27;95502.31;5049114;28;20025;-74
2023/04/09 07:19:50;;;;;;;31.35;18.15;;;;;;;9.07;69.62;95447.91;5046201;28;20032;-74
2023/04/09 07:22:17;;;;;;;26.67;16.08;;;;;;;9.18;69.41;95508.53;5049242;28;20410;-74
2023/04/09 07:24:42;;;;;;;29.70;18.13;;;;;;;9.47;71.87;95505.50;5048735;28;20048;-74
2023/04/09 07:27:08;;;;;;;26.27;17.20;;;;;;;9.18;70.16;95492.66;5047538;28;20028;-74
2023/04/09 07:29:34;;;;;;;30.52;16.60;;;;;;;9.44;70.59;95492.81;5048410;28;20025;-74
2023/04/09 07:32:00;;;;;;;25.20;16.25;;;;;;;9.62;68.50;95514.31;5049054;28;20441;-74
2023/04/09 07:34:26;;;;;;;26.95;17.40;;;;;;;8.84;67.34;95428.75;5048495;28;20040;-74
2023/04/09 07:36:52;;;;;;;31.75;17.75;;;;;;;9.73;69.22;95514.38;5048988;28;20067;-74
2023/04/09 07:39:18;;;;;;;23.52;16.52;;;;;;;9.75;66.89;95483.13;5048723;28;20387;-74
2023/04/09 07:41:43;;;;;;;24.75;15.48;;;;;;;10.13;65.84;95516.34;5048725;28;20044;-75
2023/04/09 07:44:09;;;;;;;20.17;12.98;;;;;;;10.05;65.18;95509.69;5057736;28;20045;-75
2023/04/09 07:46:34;;;;;;;25.15;15.63;;;;;;;10.05;66.05;95485.84;5067673;28;20097;-75
2023/04/09 07:48:59;;;;;;;21.27;14.05;;;;;;;10.24;64.42;95504.72;5067533;28;20036;-75
2023/04/09 07:51:25;;;;;;;21.88;14.15;;;;;;;10.28;63.61;95521.69;5066490;28;20119;-75
2023/04/09 07:53:50;;;;;;;22.70;13.52;;;;;;;10.12;62.71;95486.41;5066663;28;20028;-75
2023/04/09 07:56:16;;;;;;;19.33;12.85;;;;;;;10.40;62.55;95530.19;5068727;28;20035;-74
2023/04/09 07:58:41;;;;;;;21.02;14.05;;;;;;;10.20;61.59;95491.22;5068726;28;20035;-75
2023/04/09 08:01:07;;;;;;;22.05;13.90;;;;;;;9.78;63.84;95469.34;5064367;28;20441;-75
2023/04/09 08:03:34;;;;;;;19.60;13.27;;;;;;;9.56;61.90;95438.56;5054786;28;20035;-75
2023/04/09 08:06:00;;;;;;;22.35;14.43;;;;;;;9.73;64.05;95466.69;5065921;28;20029;-75
2023/04/09 08:08:26;;;;;;;22.05;13.55;;;;;;;9.91;62.49;95538.53;5056280;28;20060;-75
2023/04/09 08:10:52;;;;;;;21.92;13.13;;;;;;;10.17;62.02;95530.66;5070044;28;20039;-75
2023/04/09 08:13:17;;;;;;;22.10;15.05;;;;;;;10.37;62.91;95536.03;5070891;28;20111;-74
2023/04/09 08:15:43;;;;;;;24.10;15.45;;;;;;;10.31;62.98;95515.84;5070854;28;20056;-74
2023/04/09 08:18:08;;;;;;;25.08;14.93;;;;;;;10.25;63.29;95509.75;5071506;28;20108;-74
2023/04/09 08:20:34;;;;;;;24.05;14.77;;;;;;;10.15;62.02;95506.25;5071933;28;20208;-74
2023/04/09 08:22:59;;;;;;;24.88;15.40;;;;;;;10.56;61.39;95550.38;5071026;28;20419;-75
2023/04/09 08:25:25;;;;;;;24.08;14.55;;;;;;;10.45;62.09;95507.13;5071962;28;20082;-74
2023/04/09 08:27:50;;;;;;;25.33;15.07;;;;;;;10.40;61.85;95535.50;5070062;28;20039;-74
2023/04/09 08:30:16;;;;;;;24.42;15.23;;;;;;;10.41;62.72;95524.63;5068163;28;20400;-74
2023/04/09 08:32:43;;;;;;;23.88;14.85;;;;;;;10.22;62.11;95485.66;5071578;28;20128;-74
2023/04/09 08:35:09;;;;;;;19.90;12.80;;;;;;;10.55;61.29;95551.44;5054187;28;20111;-74
2023/04/09 08:37:34;;;;;;;19.85;12.90;;;;;;;10.35;60.97;95532.84;5054948;28;20144;-74
2023/04/09 08:40:00;;;;;;;24.63;14.15;;;;;;;10.33;61.34;95522.50;5070204;28;20021;-74
2023/04/09 08:42:26;;;;;;;20.80;13.85;;;;;;;10.60;61.14;95551.44;5069698;28;20486;-74
2023/04/09 08:44:52;;;;;;;20.02;13.73;;;;;;;10.27;60.87;95530.72;5065686;28;20052;-74
2023/04/09 08:47:19;;;;;;;19.48;13.32;;;;;;;10.33;61.58;95545.56;5068933;28;20052;-74
2023/04/09 08:49:47;;;;;;;20.63;13.27;;;;;;;10.33;61.82;95503.94;5071419;28;20036;-74
2023/04/09 08:52:15;;;;;;;25.95;14.70;;;;;;;10.65;62.34;95540.03;5070037;28;20036;-74
2023/04/09 08:54:40;;;;;;;22.88;14.55;;;;;;;10.66;61.78;95523.88;5071131;28;20035;-74
2023/04/09 08:57:06;;;;;;;21.42;14.25;;;;;;;10.55;61.59;95522.25;5069907;28;20502;-74
2023/04/09 08:59:35;;;;;;;21.42;14.02;;;;;;;10.58;61.91;95529.69;5071262;28;20502;-74
2023/04/09 09:02:10;;;;;;;21.17;13.30;;;;;;;10.49;61.64;95514.56;5069882;28;20028;-74
2023/04/09 09:04:49;;;;;;;23.08;14.52;;;;;;;10.55;61.70;95492.28;5069161;28;20399;-74
2023/04/09 09:07:15;;;;;;;21.95;14.50;;;;;;;10.90;61.02;95481.66;5060536;28;20520;-74
2023/04/09 09:09:54;;;;;;;18.60;13.75;;;;;;;11.03;60.13;95504.19;5055975;28;20036;-74
2023/04/09 09:12:50;;;;;;;19.30;12.60;;;;;;;11.11;59.05;95525.69;5070208;28;20093;-74
2023/04/09 09:15:26;;;;;;;19.40;12.98;;;;;;;11.34;58.73;95518.22;5048318;28;20078;-74
2023/04/09 09:17:57;;;;;;;22.52;13.52;;;;;;;11.14;59.67;95501.25;5070805;28;20032;-74
2023/04/09 09:20:23;;;;;;;19.90;14.02;;;;;;;11.34;57.75;95516.34;5069593;28;20116;-74
2023/04/09 09:22:50;;;;;;;22.63;14.63;;;;;;;11.20;57.64;95464.88;5069417;28;20039;-74
2023/04/09 09:25:16;;;;;;;23.77;14.23;;;;;;;11.49;57.33;95489.75;5068490;28;20028;-74
2023/04/09 09:27:42;;;;;;;22.20;15.10;;;;;;;11.55;57.20;95517.88;5069095;28;20047;-74
2023/04/09 09:30:19;;;;;;;28.30;16.50;;;;;;;11.77;57.26;95512.25;5056310;28;20035;-74
2023/04/09 09:32:45;;;;;;;28.58;15.48;;;;;;;11.41;58.52;95502.78;5055296;28;20024;-74
2023/04/09 09:35:10;;;;;;;23.85;14.55;;;;;;;11.49;57.60;95507.53;5069919;28;20614;-74
2023/04/09 09:37:35;;;;;;;22.25;13.65;;;;;;;11.40;57.67;95464.00;5070642;28;20143;-74
2023/04/09 09:40:02;;;;;;;26.05;15.00;;;;;;;11.82;57.35;95503.47;5072694;28;20032;-74
2023/04/09 09:42:27;;;;;;;20.10;13.20;;;;;;;11.24;56.96;95450.00;5070897;28;20028;-74
2023/04/09 09:44:54;;;;;;;25.20;14.65;;;;;;;11.50;57.91;95501.16;5064025;28;20063;-74
2023/04/09 09:47:20;;;;;;;21.80;14.70;;;;;;;11.54;58.52;95465.00;5069592;28;20039;-74
2023/04/09 09:49:50;;;;;;;19.20;13.77;;;;;;;11.92;57.36;95500.75;5056823;28;20029;-74
2023/04/09 09:52:24;;;;;;;23.35;14.55;;;;;;;12.09;57.97;95482.59;5063777;28;20118;-74
2023/04/09 09:54:52;;;;;;;17.88;12.52;;;;;;;12.13;55.98;95480.94;5064579;28;20039;-74
2023/04/09 09:57:19;;;;;;;22.10;12.73;;;;;;;12.53;55.70;95484.41;5068261;28;20034;-74
2023/04/09 09:59:52;;;;;;;19.08;12.50;;;;;;;12.89;52.67;95464.41;5068264;28;20115;-74
2023/04/09 10:02:19;;;;;;;17.92;11.98;;;;;;;13.81;52.46;95482.88;5068300;28;20550;-75
2023/04/09 10:04:47;;;;;;;20.92;13.13;;;;;;;14.56;50.95;95467.72;5062757;28;20029;-75
2023/04/09 10:07:14;;;;;;;18.83;12.43;;;;;;;15.29;50.53;95453.63;5054972;28;20513;-75
2023/04/09 10:09:44;;;;;;;17.25;11.10;;;;;;;15.88;46.69;95459.16;5058906;28;20033;-75
2023/04/09 10:12:11;;;;;;;17.02;11.35;;;;;;;16.45;44.27;95469.16;5056230;28;20042;-75
2023/04/09 10:14:38;;;;;;;11.93;9.68;;;;;;;16.35;43.69;95418.53;5069903;28;20032;-75
2023/04/09 10:17:04;;;;;;;12.93;9.77;;;;;;;16.43;42.47;95433.06;5068950;28;20106;-75
2023/04/09 10:19:34;;;;;;;12.90;9.23;;;;;;;16.84;42.17;95448.97;5056790;28;20029;-75
2023/04/09 10:22:14;;;;;;;11.45;8.90;;;;;;;17.12;43.30;95463.00;5068577;28;20110;-75
2023/04/09 10:24:40;;;;;;;12.25;8.73;;;;;;;17.23;43.05;95426.81;5051569;28;20534;-75
2023/04/09 10:27:11;;;;;;;11.02;8.75;;;;;;;17.77;40.96;95454.31;5066366;28;20063;-75
2023/04/09 10:29:43;;;;;;;11.88;8.57;;;;;;;17.77;41.08;95438.22;5069170;28;20035;-75
2023/04/09 10:32:08;;;;;;;10.52;9.07;;;;;;;18.07;40.65;95456.09;5070098;28;20501;-75
2023/04/09 10:34:39;;;;;;;12.27;8.65;;;;;;;18.02;39.96;95427.50;5069559;28;20060;-75
2023/04/09 10:37:13;;;;;;;11.05;8.57;;;;;;;17.72;39.73;95450.66;5069277;28;20116;-75
2023/04/09 10:39:42;;;;;;;11.30;8.88;;;;;;;17.11;40.79;95448.00;5069050;28;20068;-75
2023/04/09 10:42:13;;;;;;;14.75;9.93;;;;;;;17.45;41.39;95450.06;5068915;28;20486;-75
2023/04/09 10:44:42;;;;;;;14.37;10.00;;;;;;;16.86;39.88;95412.72;5069559;28;20057;-75
2023/04/09 10:47:10;;;;;;;12.70;9.23;;;;;;;17.47;40.07;95437.16;5069072;28;20156;-75
2023/04/09 10:49:40;;;;;;;11.60;9.25;;;;;;;17.55;39.33;95410.34;5068294;28;20087;-75
2023/04/09 10:52:12;;;;;;;12.23;9.40;;;;;;;17.72;39.70;95428.41;5069022;28;20060;-75
2023/04/09 10:54:44;;;;;;;9.48;8.07;;;;;;;17.57;39.87;95364.44;5053405;28;20119;-74
2023/04/09 10:57:18;;;;;;;11.27;8.73;;;;;;;18.23;38.64;95419.66;5066004;28;20150;-75
2023/04/09 10:59:52;;;;;;;12.18;7.93;;;;;;;18.02;38.51;95414.09;5053532;28;20025;-75
2023/04/09 11:02:39;;;;;;;9.60;8.57;;;;;;;18.29;39.42;95404.97;5069319;28;20054;-75
2023/04/09 11:05:16;;;;;;;15.27;8.57;;;;;;;18.27;38.88;95407.16;5067610;28;20044;-75
2023/04/09 11:08:15;;;;;;;15.73;11.20;;;;;;;17.97;39.49;95411.56;5067817;28;20178;-75
2023/04/09 11:10:43;;;;;;;12.50;9.00;;;;;;;18.15;39.02;95393.59;5023904;28;20519;-75
2023/04/09 11:13:13;;;;;;;10.27;7.85;;;;;;;17.93;39.33;95407.13;5067596;28;20029;-75
2023/04/09 11:15:39;;;;;;;9.38;7.50;;;;;;;17.51;38.00;95382.56;5069199;28;20117;-75
2023/04/09 11:18:05;;;;;;;13.25;8.75;;;;;;;17.60;38.87;95404.84;5069088;28;20126;-75
2023/04/09 11:20:33;;;;;;;8.73;7.72;;;;;;;17.10;42.57;95408.91;5068537;28;20035;-75
2023/04/09 11:22:59;;;;;;;11.88;9.57;;;;;;;16.61;46.17;95410.72;5069321;28;20032;-75
2023/04/09 11:25:27;;;;;;;14.02;10.27;;;;;;;16.53;50.89;95401.50;5069076;28;20405;-75